Terminal Aerodrome Forecast
Issued by NWS Sterling, VA

Current Version | Previous Version | Graphics & Text | Print | Product List | Glossary On
Versions: 1 2 3 4 5 6 7 8 9 10 11 12 13 14
000
FTUS41 KLWX 171700
TAFMRB
TAF
KMRB 171726Z 1718/1818 14010KT P6SM FEW050 SCT250
     FM180000 13006KT P6SM FEW050 SCT250
     FM180700 00000KT P6SM BKN250
     FM181700 13006KT P6SM BKN130=

USA.gov is the U.S. government's official web portal to all federal, state and local government web resources and services.